sensor_id;sensor_type;location;lat;lon;timestamp;P1;durP1;ratioP1;P2;durP2;ratioP2
36373;SDS011;22399;51.346;12.372;2024-02-28T00:00:18;27.60;;;6.45;;
36373;SDS011;22399;51.346;12.372;2024-02-28T00:02:47;19.85;;;6.07;;
36373;SDS011;22399;51.346;12.372;2024-02-28T00:05:15;25.63;;;6.93;;
36373;SDS011;22399;51.346;12.372;2024-02-28T00:07:43;21.90;;;6.07;;
36373;SDS011;22399;51.346;12.372;2024-02-28T00:10:12;22.65;;;6.55;;
36373;SDS011;22399;51.346;12.372;2024-02-28T00:12:42;21.77;;;7.15;;
36373;SDS011;22399;51.346;12.372;2024-02-28T00:15:10;26.02;;;7.38;;
36373;SDS011;22399;51.346;12.372;2024-02-28T00:17:39;28.88;;;6.28;;
36373;SDS011;22399;51.346;12.372;2024-02-28T00:20:08;31.98;;;8.50;;
36373;SDS011;22399;51.346;12.372;2024-02-28T00:22:38;28.90;;;7.72;;
36373;SDS011;22399;51.346;12.372;2024-02-28T00:25:06;25.38;;;7.00;;
36373;SDS011;22399;51.346;12.372;2024-02-28T00:27:37;26.30;;;7.63;;
36373;SDS011;22399;51.346;12.372;2024-02-28T00:30:08;36.92;;;7.90;;
36373;SDS011;22399;51.346;12.372;2024-02-28T00:32:37;19.75;;;6.88;;
36373;SDS011;22399;51.346;12.372;2024-02-28T00:35:06;24.40;;;6.47;;
36373;SDS011;22399;51.346;12.372;2024-02-28T00:37:35;29.45;;;6.13;;
36373;SDS011;22399;51.346;12.372;2024-02-28T00:40:04;23.38;;;7.05;;
36373;SDS011;22399;51.346;12.372;2024-02-28T00:42:35;28.70;;;7.10;;
36373;SDS011;22399;51.346;12.372;2024-02-28T00:45:04;17.10;;;6.30;;
36373;SDS011;22399;51.346;12.372;2024-02-28T00:47:34;25.98;;;5.53;;
36373;SDS011;22399;51.346;12.372;2024-02-28T00:50:04;21.38;;;6.13;;
36373;SDS011;22399;51.346;12.372;2024-02-28T00:52:33;17.08;;;5.80;;
36373;SDS011;22399;51.346;12.372;2024-02-28T00:55:02;23.33;;;6.22;;
36373;SDS011;22399;51.346;12.372;2024-02-28T00:57:31;26.00;;;6.88;;
36373;SDS011;22399;51.346;12.372;2024-02-28T00:59:59;30.25;;;6.93;;
36373;SDS011;22399;51.346;12.372;2024-02-28T01:02:28;21.48;;;8.10;;
36373;SDS011;22399;51.346;12.372;2024-02-28T01:04:57;41.97;;;9.63;;
36373;SDS011;22399;51.346;12.372;2024-02-28T01:07:26;29.48;;;8.02;;
36373;SDS011;22399;51.346;12.372;2024-02-28T01:09:54;28.45;;;7.60;;
36373;SDS011;22399;51.346;12.372;2024-02-28T01:12:23;28.17;;;7.72;;
36373;SDS011;22399;51.346;12.372;2024-02-28T01:14:51;28.33;;;8.55;;
36373;SDS011;22399;51.346;12.372;2024-02-28T01:17:20;23.65;;;7.53;;
36373;SDS011;22399;51.346;12.372;2024-02-28T01:19:48;25.58;;;7.13;;
36373;SDS011;22399;51.346;12.372;2024-02-28T01:22:18;25.85;;;8.25;;
36373;SDS011;22399;51.346;12.372;2024-02-28T01:24:46;25.92;;;7.35;;
36373;SDS011;22399;51.346;12.372;2024-02-28T01:27:14;27.08;;;7.05;;
36373;SDS011;22399;51.346;12.372;2024-02-28T01:29:43;31.63;;;7.45;;
36373;SDS011;22399;51.346;12.372;2024-02-28T01:32:11;21.98;;;7.25;;
36373;SDS011;22399;51.346;12.372;2024-02-28T01:34:39;21.98;;;6.80;;
36373;SDS011;22399;51.346;12.372;2024-02-28T01:37:08;23.33;;;7.55;;
36373;SDS011;22399;51.346;12.372;2024-02-28T01:39:38;19.52;;;6.65;;
36373;SDS011;22399;51.346;12.372;2024-02-28T01:42:06;24.15;;;6.82;;
36373;SDS011;22399;51.346;12.372;2024-02-28T01:44:37;31.63;;;7.72;;
36373;SDS011;22399;51.346;12.372;2024-02-28T01:47:10;25.45;;;7.63;;
36373;SDS011;22399;51.346;12.372;2024-02-28T01:49:40;20.38;;;6.88;;
36373;SDS011;22399;51.346;12.372;2024-02-28T01:52:09;29.52;;;8.48;;
36373;SDS011;22399;51.346;12.372;2024-02-28T01:54:40;28.73;;;8.02;;
36373;SDS011;22399;51.346;12.372;2024-02-28T01:57:09;31.52;;;9.00;;
36373;SDS011;22399;51.346;12.372;2024-02-28T01:59:38;34.42;;;7.25;;
36373;SDS011;22399;51.346;12.372;2024-02-28T02:02:08;25.52;;;6.30;;
36373;SDS011;22399;51.346;12.372;2024-02-28T02:04:37;28.42;;;7.55;;
36373;SDS011;22399;51.346;12.372;2024-02-28T02:07:05;19.40;;;6.75;;
36373;SDS011;22399;51.346;12.372;2024-02-28T02:09:35;24.77;;;7.30;;
36373;SDS011;22399;51.346;12.372;2024-02-28T02:12:05;22.73;;;6.82;;
36373;SDS011;22399;51.346;12.372;2024-02-28T02:14:34;27.38;;;7.15;;
36373;SDS011;22399;51.346;12.372;2024-02-28T02:17:03;32.33;;;8.68;;
36373;SDS011;22399;51.346;12.372;2024-02-28T02:19:31;23.65;;;8.15;;
36373;SDS011;22399;51.346;12.372;2024-02-28T02:22:00;23.88;;;7.85;;
36373;SDS011;22399;51.346;12.372;2024-02-28T02:24:32;35.97;;;9.15;;
36373;SDS011;22399;51.346;12.372;2024-02-28T02:27:01;20.25;;;7.18;;
36373;SDS011;22399;51.346;12.372;2024-02-28T02:29:31;23.30;;;8.00;;
36373;SDS011;22399;51.346;12.372;2024-02-28T02:31:59;32.03;;;9.40;;
36373;SDS011;22399;51.346;12.372;2024-02-28T02:34:28;37.00;;;9.00;;
36373;SDS011;22399;51.346;12.372;2024-02-28T02:36:56;29.15;;;8.00;;
36373;SDS011;22399;51.346;12.372;2024-02-28T02:39:25;26.77;;;7.97;;
36373;SDS011;22399;51.346;12.372;2024-02-28T02:41:54;24.63;;;7.55;;
36373;SDS011;22399;51.346;12.372;2024-02-28T02:44:23;24.17;;;8.25;;
36373;SDS011;22399;51.346;12.372;2024-02-28T02:46:52;25.38;;;7.80;;
36373;SDS011;22399;51.346;12.372;2024-02-28T02:49:20;25.13;;;7.28;;
36373;SDS011;22399;51.346;12.372;2024-02-28T02:51:49;33.63;;;8.93;;
36373;SDS011;22399;51.346;12.372;2024-02-28T02:54:17;37.05;;;8.55;;
36373;SDS011;22399;51.346;12.372;2024-02-28T02:56:46;33.40;;;8.93;;
36373;SDS011;22399;51.346;12.372;2024-02-28T02:59:16;23.00;;;8.23;;
36373;SDS011;22399;51.346;12.372;2024-02-28T03:01:48;33.17;;;8.70;;
36373;SDS011;22399;51.346;12.372;2024-02-28T03:04:18;28.15;;;8.38;;
36373;SDS011;22399;51.346;12.372;2024-02-28T03:06:46;26.88;;;8.35;;
36373;SDS011;22399;51.346;12.372;2024-02-28T03:09:14;31.80;;;9.43;;
36373;SDS011;22399;51.346;12.372;2024-02-28T03:11:43;29.60;;;8.77;;
36373;SDS011;22399;51.346;12.372;2024-02-28T03:14:11;24.40;;;8.45;;
36373;SDS011;22399;51.346;12.372;2024-02-28T03:16:42;28.75;;;8.18;;
36373;SDS011;22399;51.346;12.372;2024-02-28T03:19:11;33.35;;;8.50;;
36373;SDS011;22399;51.346;12.372;2024-02-28T03:21:39;28.05;;;7.22;;
36373;SDS011;22399;51.346;12.372;2024-02-28T03:24:07;30.17;;;8.68;;
36373;SDS011;22399;51.346;12.372;2024-02-28T03:26:36;31.60;;;8.52;;
36373;SDS011;22399;51.346;12.372;2024-02-28T03:29:05;28.60;;;8.02;;
36373;SDS011;22399;51.346;12.372;2024-02-28T03:31:33;40.75;;;8.18;;
36373;SDS011;22399;51.346;12.372;2024-02-28T03:34:03;31.40;;;8.55;;
36373;SDS011;22399;51.346;12.372;2024-02-28T03:36:32;31.92;;;8.20;;
36373;SDS011;22399;51.346;12.372;2024-02-28T03:39:00;38.00;;;9.00;;
36373;SDS011;22399;51.346;12.372;2024-02-28T03:41:29;27.80;;;8.23;;
36373;SDS011;22399;51.346;12.372;2024-02-28T03:43:57;32.45;;;8.80;;
36373;SDS011;22399;51.346;12.372;2024-02-28T03:46:25;19.63;;;6.18;;
36373;SDS011;22399;51.346;12.372;2024-02-28T03:48:54;29.98;;;9.18;;
36373;SDS011;22399;51.346;12.372;2024-02-28T03:51:23;22.88;;;7.47;;
36373;SDS011;22399;51.346;12.372;2024-02-28T03:53:52;31.02;;;8.15;;
36373;SDS011;22399;51.346;12.372;2024-02-28T03:56:23;23.00;;;8.07;;
36373;SDS011;22399;51.346;12.372;2024-02-28T03:58:52;25.90;;;7.65;;
36373;SDS011;22399;51.346;12.372;2024-02-28T04:01:20;23.05;;;6.93;;
36373;SDS011;22399;51.346;12.372;2024-02-28T04:03:49;30.83;;;9.13;;
36373;SDS011;22399;51.346;12.372;2024-02-28T04:06:18;34.47;;;9.43;;
36373;SDS011;22399;51.346;12.372;2024-02-28T04:08:47;36.67;;;9.40;;
36373;SDS011;22399;51.346;12.372;2024-02-28T04:11:16;26.83;;;8.57;;
36373;SDS011;22399;51.346;12.372;2024-02-28T04:13:44;34.33;;;8.68;;
36373;SDS011;22399;51.346;12.372;2024-02-28T04:16:12;32.08;;;8.60;;
36373;SDS011;22399;51.346;12.372;2024-02-28T04:18:41;38.28;;;8.63;;
36373;SDS011;22399;51.346;12.372;2024-02-28T04:21:09;28.58;;;8.80;;
36373;SDS011;22399;51.346;12.372;2024-02-28T04:23:38;27.20;;;7.47;;
36373;SDS011;22399;51.346;12.372;2024-02-28T04:26:09;28.52;;;8.32;;
36373;SDS011;22399;51.346;12.372;2024-02-28T04:28:37;37.13;;;8.93;;
36373;SDS011;22399;51.346;12.372;2024-02-28T04:31:06;29.45;;;7.68;;
36373;SDS011;22399;51.346;12.372;2024-02-28T04:33:36;31.52;;;9.32;;
36373;SDS011;22399;51.346;12.372;2024-02-28T04:36:05;27.70;;;8.40;;
36373;SDS011;22399;51.346;12.372;2024-02-28T04:38:33;31.63;;;10.00;;
36373;SDS011;22399;51.346;12.372;2024-02-28T04:41:01;29.00;;;9.35;;
36373;SDS011;22399;51.346;12.372;2024-02-28T04:43:31;28.67;;;8.88;;
36373;SDS011;22399;51.346;12.372;2024-02-28T04:46:00;34.17;;;8.93;;
36373;SDS011;22399;51.346;12.372;2024-02-28T04:48:29;30.40;;;9.57;;
36373;SDS011;22399;51.346;12.372;2024-02-28T04:50:59;27.80;;;8.95;;
36373;SDS011;22399;51.346;12.372;2024-02-28T04:53:28;37.88;;;11.00;;
36373;SDS011;22399;51.346;12.372;2024-02-28T04:55:57;37.35;;;10.68;;
36373;SDS011;22399;51.346;12.372;2024-02-28T04:58:25;41.03;;;10.98;;
36373;SDS011;22399;51.346;12.372;2024-02-28T05:00:54;34.65;;;10.50;;
36373;SDS011;22399;51.346;12.372;2024-02-28T05:03:23;32.65;;;10.13;;
36373;SDS011;22399;51.346;12.372;2024-02-28T05:05:52;27.98;;;8.40;;
36373;SDS011;22399;51.346;12.372;2024-02-28T05:08:20;47.85;;;12.23;;
36373;SDS011;22399;51.346;12.372;2024-02-28T05:10:49;27.42;;;7.90;;
36373;SDS011;22399;51.346;12.372;2024-02-28T05:13:18;38.30;;;11.18;;
36373;SDS011;22399;51.346;12.372;2024-02-28T05:15:48;38.40;;;10.25;;
36373;SDS011;22399;51.346;12.372;2024-02-28T05:18:18;37.70;;;9.93;;
36373;SDS011;22399;51.346;12.372;2024-02-28T05:20:47;35.50;;;10.35;;
36373;SDS011;22399;51.346;12.372;2024-02-28T05:23:16;33.72;;;10.25;;
36373;SDS011;22399;51.346;12.372;2024-02-28T05:25:46;35.25;;;10.18;;
36373;SDS011;22399;51.346;12.372;2024-02-28T05:28:14;23.98;;;8.05;;
36373;SDS011;22399;51.346;12.372;2024-02-28T05:30:42;31.02;;;9.38;;
36373;SDS011;22399;51.346;12.372;2024-02-28T05:33:15;31.00;;;8.05;;
36373;SDS011;22399;51.346;12.372;2024-02-28T05:35:46;30.35;;;9.00;;
36373;SDS011;22399;51.346;12.372;2024-02-28T05:38:14;30.50;;;8.93;;
36373;SDS011;22399;51.346;12.372;2024-02-28T05:40:42;31.55;;;9.20;;
36373;SDS011;22399;51.346;12.372;2024-02-28T05:43:10;27.13;;;8.95;;
36373;SDS011;22399;51.346;12.372;2024-02-28T05:45:39;28.40;;;8.57;;
36373;SDS011;22399;51.346;12.372;2024-02-28T05:48:07;33.08;;;8.50;;
36373;SDS011;22399;51.346;12.372;2024-02-28T05:50:36;31.85;;;9.57;;
36373;SDS011;22399;51.346;12.372;2024-02-28T05:53:06;31.95;;;7.80;;
36373;SDS011;22399;51.346;12.372;2024-02-28T05:55:34;32.22;;;8.82;;
36373;SDS011;22399;51.346;12.372;2024-02-28T05:58:03;36.38;;;9.45;;
36373;SDS011;22399;51.346;12.372;2024-02-28T06:00:31;29.50;;;9.18;;
36373;SDS011;22399;51.346;12.372;2024-02-28T06:03:01;33.50;;;7.75;;
36373;SDS011;22399;51.346;12.372;2024-02-28T06:05:30;27.15;;;8.25;;
36373;SDS011;22399;51.346;12.372;2024-02-28T06:07:58;33.03;;;9.48;;
36373;SDS011;22399;51.346;12.372;2024-02-28T06:10:28;30.38;;;9.23;;
36373;SDS011;22399;51.346;12.372;2024-02-28T06:12:56;26.95;;;8.88;;
36373;SDS011;22399;51.346;12.372;2024-02-28T06:15:25;31.33;;;9.38;;
36373;SDS011;22399;51.346;12.372;2024-02-28T06:17:55;22.88;;;7.70;;
36373;SDS011;22399;51.346;12.372;2024-02-28T06:20:24;30.60;;;8.65;;
36373;SDS011;22399;51.346;12.372;2024-02-28T06:22:52;31.02;;;9.02;;
36373;SDS011;22399;51.346;12.372;2024-02-28T06:25:20;30.55;;;9.45;;
36373;SDS011;22399;51.346;12.372;2024-02-28T06:27:51;24.17;;;8.05;;
36373;SDS011;22399;51.346;12.372;2024-02-28T06:30:20;30.17;;;9.38;;
36373;SDS011;22399;51.346;12.372;2024-02-28T06:32:48;30.00;;;8.60;;
36373;SDS011;22399;51.346;12.372;2024-02-28T06:35:17;33.88;;;8.25;;
36373;SDS011;22399;51.346;12.372;2024-02-28T06:37:45;32.95;;;9.45;;
36373;SDS011;22399;51.346;12.372;2024-02-28T06:40:16;23.38;;;8.57;;
36373;SDS011;22399;51.346;12.372;2024-02-28T06:42:45;27.80;;;8.48;;
36373;SDS011;22399;51.346;12.372;2024-02-28T06:45:14;35.65;;;9.32;;
36373;SDS011;22399;51.346;12.372;2024-02-28T06:47:44;28.75;;;8.68;;
36373;SDS011;22399;51.346;12.372;2024-02-28T06:50:12;24.30;;;8.57;;
36373;SDS011;22399;51.346;12.372;2024-02-28T06:52:41;29.40;;;9.52;;
36373;SDS011;22399;51.346;12.372;2024-02-28T06:55:09;29.13;;;8.73;;
36373;SDS011;22399;51.346;12.372;2024-02-28T06:57:39;31.38;;;8.35;;
36373;SDS011;22399;51.346;12.372;2024-02-28T07:00:09;24.98;;;8.63;;
36373;SDS011;22399;51.346;12.372;2024-02-28T07:02:40;25.77;;;7.10;;
36373;SDS011;22399;51.346;12.372;2024-02-28T07:05:09;23.52;;;7.28;;
36373;SDS011;22399;51.346;12.372;2024-02-28T07:07:37;30.75;;;9.98;;
36373;SDS011;22399;51.346;12.372;2024-02-28T07:10:06;31.55;;;7.85;;
36373;SDS011;22399;51.346;12.372;2024-02-28T07:12:35;31.90;;;9.13;;
36373;SDS011;22399;51.346;12.372;2024-02-28T07:15:04;25.15;;;8.35;;
36373;SDS011;22399;51.346;12.372;2024-02-28T07:17:32;32.47;;;8.73;;
36373;SDS011;22399;51.346;12.372;2024-02-28T07:20:02;30.17;;;7.95;;
36373;SDS011;22399;51.346;12.372;2024-02-28T07:22:32;24.67;;;8.50;;
36373;SDS011;22399;51.346;12.372;2024-02-28T07:25:00;30.58;;;9.30;;
36373;SDS011;22399;51.346;12.372;2024-02-28T07:27:28;33.80;;;9.43;;
36373;SDS011;22399;51.346;12.372;2024-02-28T07:29:57;41.80;;;9.82;;
36373;SDS011;22399;51.346;12.372;2024-02-28T07:32:25;38.03;;;10.75;;
36373;SDS011;22399;51.346;12.372;2024-02-28T07:34:53;35.92;;;11.38;;
36373;SDS011;22399;51.346;12.372;2024-02-28T07:37:23;43.10;;;12.57;;
36373;SDS011;22399;51.346;12.372;2024-02-28T07:39:52;46.47;;;12.70;;
36373;SDS011;22399;51.346;12.372;2024-02-28T07:42:20;46.00;;;13.90;;
36373;SDS011;22399;51.346;12.372;2024-02-28T07:44:49;40.10;;;13.10;;
36373;SDS011;22399;51.346;12.372;2024-02-28T07:47:19;39.20;;;10.45;;
36373;SDS011;22399;51.346;12.372;2024-02-28T07:49:49;52.22;;;13.93;;
36373;SDS011;22399;51.346;12.372;2024-02-28T07:52:18;50.78;;;14.23;;
36373;SDS011;22399;51.346;12.372;2024-02-28T07:54:47;53.50;;;14.30;;
36373;SDS011;22399;51.346;12.372;2024-02-28T07:57:16;55.90;;;13.82;;
36373;SDS011;22399;51.346;12.372;2024-02-28T07:59:45;47.40;;;13.75;;
36373;SDS011;22399;51.346;12.372;2024-02-28T08:02:13;48.38;;;13.05;;
36373;SDS011;22399;51.346;12.372;2024-02-28T08:04:42;53.58;;;14.85;;
36373;SDS011;22399;51.346;12.372;2024-02-28T08:07:10;51.75;;;14.00;;
36373;SDS011;22399;51.346;12.372;2024-02-28T08:09:38;55.22;;;13.07;;
36373;SDS011;22399;51.346;12.372;2024-02-28T08:12:08;59.92;;;15.93;;
36373;SDS011;22399;51.346;12.372;2024-02-28T08:14:37;41.38;;;12.95;;
36373;SDS011;22399;51.346;12.372;2024-02-28T08:17:05;40.85;;;12.55;;
36373;SDS011;22399;51.346;12.372;2024-02-28T08:19:34;44.55;;;11.73;;
36373;SDS011;22399;51.346;12.372;2024-02-28T08:22:02;46.45;;;13.00;;
36373;SDS011;22399;51.346;12.372;2024-02-28T08:24:31;45.92;;;13.43;;
36373;SDS011;22399;51.346;12.372;2024-02-28T08:27:00;50.10;;;15.38;;
36373;SDS011;22399;51.346;12.372;2024-02-28T08:29:30;48.70;;;12.63;;
36373;SDS011;22399;51.346;12.372;2024-02-28T08:31:59;46.67;;;13.52;;
36373;SDS011;22399;51.346;12.372;2024-02-28T08:34:27;50.10;;;13.10;;
36373;SDS011;22399;51.346;12.372;2024-02-28T08:36:56;41.05;;;13.35;;
36373;SDS011;22399;51.346;12.372;2024-02-28T08:39:24;39.75;;;13.00;;
36373;SDS011;22399;51.346;12.372;2024-02-28T08:41:53;38.20;;;12.25;;
36373;SDS011;22399;51.346;12.372;2024-02-28T08:44:21;34.90;;;11.82;;
36373;SDS011;22399;51.346;12.372;2024-02-28T08:46:51;39.35;;;14.35;;
36373;SDS011;22399;51.346;12.372;2024-02-28T08:49:19;40.80;;;12.43;;
36373;SDS011;22399;51.346;12.372;2024-02-28T08:51:47;36.88;;;11.73;;
36373;SDS011;22399;51.346;12.372;2024-02-28T08:54:16;40.70;;;13.30;;
36373;SDS011;22399;51.346;12.372;2024-02-28T08:56:44;33.60;;;11.68;;
36373;SDS011;22399;51.346;12.372;2024-02-28T08:59:22;34.10;;;12.15;;
36373;SDS011;22399;51.346;12.372;2024-02-28T09:01:51;37.55;;;12.90;;
36373;SDS011;22399;51.346;12.372;2024-02-28T09:04:20;34.85;;;12.13;;
36373;SDS011;22399;51.346;12.372;2024-02-28T09:06:48;37.67;;;12.75;;
36373;SDS011;22399;51.346;12.372;2024-02-28T09:09:17;35.15;;;12.02;;
36373;SDS011;22399;51.346;12.372;2024-02-28T09:11:45;36.67;;;12.45;;
36373;SDS011;22399;51.346;12.372;2024-02-28T09:14:14;40.03;;;11.35;;
36373;SDS011;22399;51.346;12.372;2024-02-28T09:16:42;34.40;;;11.82;;
36373;SDS011;22399;51.346;12.372;2024-02-28T09:19:12;31.20;;;10.90;;
36373;SDS011;22399;51.346;12.372;2024-02-28T09:21:40;34.58;;;10.90;;
36373;SDS011;22399;51.346;12.372;2024-02-28T09:24:09;37.63;;;11.48;;
36373;SDS011;22399;51.346;12.372;2024-02-28T09:26:38;35.42;;;11.40;;
36373;SDS011;22399;51.346;12.372;2024-02-28T09:29:07;33.92;;;11.82;;
36373;SDS011;22399;51.346;12.372;2024-02-28T09:31:35;36.72;;;11.95;;
36373;SDS011;22399;51.346;12.372;2024-02-28T09:34:03;41.33;;;12.35;;
36373;SDS011;22399;51.346;12.372;2024-02-28T09:36:41;33.20;;;11.88;;
36373;SDS011;22399;51.346;12.372;2024-02-28T09:39:16;38.53;;;12.27;;
36373;SDS011;22399;51.346;12.372;2024-02-28T09:41:46;45.88;;;12.75;;
36373;SDS011;22399;51.346;12.372;2024-02-28T09:44:16;41.25;;;10.75;;
36373;SDS011;22399;51.346;12.372;2024-02-28T09:46:45;37.13;;;12.23;;
36373;SDS011;22399;51.346;12.372;2024-02-28T09:49:15;25.63;;;9.52;;
36373;SDS011;22399;51.346;12.372;2024-02-28T09:51:45;45.10;;;14.93;;
36373;SDS011;22399;51.346;12.372;2024-02-28T09:54:17;38.85;;;11.75;;
36373;SDS011;22399;51.346;12.372;2024-02-28T09:56:46;42.65;;;13.25;;
36373;SDS011;22399;51.346;12.372;2024-02-28T09:59:16;30.83;;;11.95;;
36373;SDS011;22399;51.346;12.372;2024-02-28T10:01:53;36.33;;;11.52;;
36373;SDS011;22399;51.346;12.372;2024-02-28T10:04:24;28.38;;;10.77;;
36373;SDS011;22399;51.346;12.372;2024-02-28T10:06:56;27.95;;;10.52;;
36373;SDS011;22399;51.346;12.372;2024-02-28T10:09:25;29.33;;;11.25;;
36373;SDS011;22399;51.346;12.372;2024-02-28T10:11:54;31.30;;;11.63;;
36373;SDS011;22399;51.346;12.372;2024-02-28T10:14:22;31.60;;;11.27;;
36373;SDS011;22399;51.346;12.372;2024-02-28T10:16:50;31.00;;;10.55;;
36373;SDS011;22399;51.346;12.372;2024-02-28T10:19:19;26.75;;;9.85;;
36373;SDS011;22399;51.346;12.372;2024-02-28T10:21:48;28.05;;;9.98;;
36373;SDS011;22399;51.346;12.372;2024-02-28T10:24:18;26.17;;;9.52;;
36373;SDS011;22399;51.346;12.372;2024-02-28T10:26:48;31.80;;;11.20;;
36373;SDS011;22399;51.346;12.372;2024-02-28T10:29:22;34.60;;;11.02;;
36373;SDS011;22399;51.346;12.372;2024-02-28T10:31:51;30.35;;;10.35;;
36373;SDS011;22399;51.346;12.372;2024-02-28T10:34:19;27.25;;;10.57;;
36373;SDS011;22399;51.346;12.372;2024-02-28T10:36:48;21.75;;;9.15;;
36373;SDS011;22399;51.346;12.372;2024-02-28T10:39:18;29.83;;;10.77;;
36373;SDS011;22399;51.346;12.372;2024-02-28T10:41:49;25.38;;;11.15;;
36373;SDS011;22399;51.346;12.372;2024-02-28T10:44:20;27.75;;;10.50;;
36373;SDS011;22399;51.346;12.372;2024-02-28T10:46:49;27.58;;;9.80;;
36373;SDS011;22399;51.346;12.372;2024-02-28T10:49:18;31.20;;;9.65;;
36373;SDS011;22399;51.346;12.372;2024-02-28T10:51:48;27.42;;;9.70;;
36373;SDS011;22399;51.346;12.372;2024-02-28T10:54:19;28.33;;;10.65;;
36373;SDS011;22399;51.346;12.372;2024-02-28T10:56:49;22.08;;;8.32;;
36373;SDS011;22399;51.346;12.372;2024-02-28T10:59:19;27.70;;;9.65;;
36373;SDS011;22399;51.346;12.372;2024-02-28T11:01:48;26.00;;;9.63;;
36373;SDS011;22399;51.346;12.372;2024-02-28T11:04:18;27.63;;;9.05;;
36373;SDS011;22399;51.346;12.372;2024-02-28T11:06:47;27.23;;;8.02;;
36373;SDS011;22399;51.346;12.372;2024-02-28T11:09:22;24.67;;;8.05;;
36373;SDS011;22399;51.346;12.372;2024-02-28T11:11:52;28.73;;;8.75;;
36373;SDS011;22399;51.346;12.372;2024-02-28T11:14:21;26.48;;;8.35;;
36373;SDS011;22399;51.346;12.372;2024-02-28T11:17:01;26.60;;;8.35;;
36373;SDS011;22399;51.346;12.372;2024-02-28T11:19:31;25.08;;;8.73;;
36373;SDS011;22399;51.346;12.372;2024-02-28T11:22:02;19.55;;;7.38;;
36373;SDS011;22399;51.346;12.372;2024-02-28T11:24:34;28.50;;;8.85;;
36373;SDS011;22399;51.346;12.372;2024-02-28T11:27:04;24.48;;;8.30;;
36373;SDS011;22399;51.346;12.372;2024-02-28T11:29:33;26.70;;;8.65;;
36373;SDS011;22399;51.346;12.372;2024-02-28T11:32:02;26.13;;;8.07;;
36373;SDS011;22399;51.346;12.372;2024-02-28T11:34:31;23.35;;;6.53;;
36373;SDS011;22399;51.346;12.372;2024-02-28T11:36:59;23.08;;;8.10;;
36373;SDS011;22399;51.346;12.372;2024-02-28T11:39:28;24.88;;;7.97;;
36373;SDS011;22399;51.346;12.372;2024-02-28T11:42:09;24.48;;;8.13;;
36373;SDS011;22399;51.346;12.372;2024-02-28T11:44:40;18.85;;;7.82;;
36373;SDS011;22399;51.346;12.372;2024-02-28T11:47:09;19.48;;;6.88;;
36373;SDS011;22399;51.346;12.372;2024-02-28T11:49:37;20.30;;;7.30;;
36373;SDS011;22399;51.346;12.372;2024-02-28T11:52:06;26.20;;;8.00;;
36373;SDS011;22399;51.346;12.372;2024-02-28T11:54:36;25.33;;;7.85;;
36373;SDS011;22399;51.346;12.372;2024-02-28T11:57:04;17.88;;;7.53;;
36373;SDS011;22399;51.346;12.372;2024-02-28T11:59:36;22.63;;;8.88;;
36373;SDS011;22399;51.346;12.372;2024-02-28T12:02:11;17.13;;;5.78;;
36373;SDS011;22399;51.346;12.372;2024-02-28T12:04:40;15.48;;;6.30;;
36373;SDS011;22399;51.346;12.372;2024-02-28T12:07:08;18.35;;;6.50;;
36373;SDS011;22399;51.346;12.372;2024-02-28T12:09:37;15.68;;;6.30;;
36373;SDS011;22399;51.346;12.372;2024-02-28T12:12:08;19.83;;;6.43;;
36373;SDS011;22399;51.346;12.372;2024-02-28T12:14:38;17.55;;;5.72;;
36373;SDS011;22399;51.346;12.372;2024-02-28T12:17:08;16.38;;;6.30;;
36373;SDS011;22399;51.346;12.372;2024-02-28T12:19:37;18.35;;;6.63;;
36373;SDS011;22399;51.346;12.372;2024-02-28T12:22:06;21.90;;;6.97;;
36373;SDS011;22399;51.346;12.372;2024-02-28T12:24:36;19.42;;;6.28;;
36373;SDS011;22399;51.346;12.372;2024-02-28T12:27:04;15.82;;;6.30;;
36373;SDS011;22399;51.346;12.372;2024-02-28T12:29:33;16.58;;;6.97;;
36373;SDS011;22399;51.346;12.372;2024-02-28T12:32:03;16.08;;;6.07;;
36373;SDS011;22399;51.346;12.372;2024-02-28T12:34:32;17.55;;;5.40;;
36373;SDS011;22399;51.346;12.372;2024-02-28T12:37:00;18.83;;;6.60;;
36373;SDS011;22399;51.346;12.372;2024-02-28T12:39:29;20.23;;;6.15;;
36373;SDS011;22399;51.346;12.372;2024-02-28T12:42:01;18.10;;;6.22;;
36373;SDS011;22399;51.346;12.372;2024-02-28T12:44:29;18.33;;;7.35;;
36373;SDS011;22399;51.346;12.372;2024-02-28T12:46:57;15.80;;;6.20;;
36373;SDS011;22399;51.346;12.372;2024-02-28T12:49:27;18.08;;;6.75;;
36373;SDS011;22399;51.346;12.372;2024-02-28T12:51:55;17.35;;;6.38;;
36373;SDS011;22399;51.346;12.372;2024-02-28T12:54:23;20.95;;;6.63;;
36373;SDS011;22399;51.346;12.372;2024-02-28T12:56:52;18.58;;;6.88;;
36373;SDS011;22399;51.346;12.372;2024-02-28T12:59:20;17.23;;;6.45;;
36373;SDS011;22399;51.346;12.372;2024-02-28T13:01:49;18.13;;;5.82;;
36373;SDS011;22399;51.346;12.372;2024-02-28T13:04:17;18.45;;;6.47;;
36373;SDS011;22399;51.346;12.372;2024-02-28T13:06:47;21.23;;;6.00;;
36373;SDS011;22399;51.346;12.372;2024-02-28T13:09:15;16.80;;;5.93;;
36373;SDS011;22399;51.346;12.372;2024-02-28T13:11:44;15.52;;;5.72;;
36373;SDS011;22399;51.346;12.372;2024-02-28T13:14:13;17.60;;;5.57;;
36373;SDS011;22399;51.346;12.372;2024-02-28T13:16:41;21.20;;;5.50;;
36373;SDS011;22399;51.346;12.372;2024-02-28T13:19:10;14.90;;;5.45;;
36373;SDS011;22399;51.346;12.372;2024-02-28T13:21:40;14.52;;;5.93;;
36373;SDS011;22399;51.346;12.372;2024-02-28T13:24:10;16.02;;;5.72;;
36373;SDS011;22399;51.346;12.372;2024-02-28T13:26:39;18.23;;;6.45;;
36373;SDS011;22399;51.346;12.372;2024-02-28T13:29:07;16.42;;;5.70;;
36373;SDS011;22399;51.346;12.372;2024-02-28T13:31:36;13.43;;;5.80;;
36373;SDS011;22399;51.346;12.372;2024-02-28T13:34:04;18.92;;;6.95;;
36373;SDS011;22399;51.346;12.372;2024-02-28T13:36:33;17.15;;;5.45;;
36373;SDS011;22399;51.346;12.372;2024-02-28T13:39:03;16.05;;;5.50;;
36373;SDS011;22399;51.346;12.372;2024-02-28T13:41:33;16.90;;;5.07;;
36373;SDS011;22399;51.346;12.372;2024-02-28T13:44:01;18.00;;;5.55;;
36373;SDS011;22399;51.346;12.372;2024-02-28T13:46:30;14.55;;;5.40;;
36373;SDS011;22399;51.346;12.372;2024-02-28T13:48:59;12.93;;;4.95;;
36373;SDS011;22399;51.346;12.372;2024-02-28T13:51:27;11.88;;;4.30;;
36373;SDS011;22399;51.346;12.372;2024-02-28T13:53:56;21.80;;;5.75;;
36373;SDS011;22399;51.346;12.372;2024-02-28T13:56:24;12.65;;;4.43;;
36373;SDS011;22399;51.346;12.372;2024-02-28T13:58:54;16.05;;;5.25;;
36373;SDS011;22399;51.346;12.372;2024-02-28T14:04:05;17.15;;;5.63;;
36373;SDS011;22399;51.346;12.372;2024-02-28T14:06:33;14.90;;;4.55;;
36373;SDS011;22399;51.346;12.372;2024-02-28T14:09:02;14.27;;;5.20;;
36373;SDS011;22399;51.346;12.372;2024-02-28T14:11:31;12.30;;;4.28;;
36373;SDS011;22399;51.346;12.372;2024-02-28T14:14:02;12.52;;;4.40;;
36373;SDS011;22399;51.346;12.372;2024-02-28T14:16:30;10.05;;;4.53;;
36373;SDS011;22399;51.346;12.372;2024-02-28T14:18:59;12.90;;;4.30;;
36373;SDS011;22399;51.346;12.372;2024-02-28T14:21:28;12.88;;;4.10;;
36373;SDS011;22399;51.346;12.372;2024-02-28T14:23:56;14.05;;;4.60;;
36373;SDS011;22399;51.346;12.372;2024-02-28T14:26:25;12.50;;;4.28;;
36373;SDS011;22399;51.346;12.372;2024-02-28T14:28:53;15.20;;;4.20;;
36373;SDS011;22399;51.346;12.372;2024-02-28T14:31:23;14.50;;;3.92;;